Huvudsida
METAR-TAF:

METAR-TAF

Flygplatser :

Ted Stevens Anchorage International Airport

Anchorage, Alaska, USA

latitud: 61-10-28N, longitud: 149-59-46W, höjd: 44 m

Aktuellt väderrapport

Denna rapport gjordes för 34 minuter sedan, klockan 08:53 UTC
Vind 3 kt från sydost
Temperatur 7°C
Fuktighet 93%
Tryck 1024 hPa
Sikt: 16.1 km
Få moln på en höjd av 4800 ft
Spridda moln på en höjd av 7000 ft

METAR: PANC 260853Z 13003KT 10SM FEW048 SCT070 07/06 A3023 RMK AO2 SLP237 T00720056 401560067 51021

Tid: 01:27 (09:27 UTC)

Väderprognos

Denna rapport gjordes för 4 timmar och 6 minuter sedan, klockan 05:21 UTC
Prognos gäller från 26 kl. 06 UTC till 27 kl. 12 UTC
Vind 5 kt varierande vindriktning
Sikt: 10 km
Få moln på en höjd av 5000 ft
Spridda moln på en höjd av 20000 ft

TAF: PANC 260521Z 2606/2712 VRB05KT P6SM FEW050 SCT200

Aktuella väderrapporter och prognoser från 4000 flygplatser (METAR- och TAF-rapporter).

De tillgängliga stationerna syns som gula och röda prickar på kartan.

För musen över prickarna för att se namnen på stationerna.

Klicka sedan för att få väderrapporter och prognoser.

För att ändra kartan: Klicka på de gröna knapparna med ett svart kors på för att zooma in; den gröna knappen med ett streck på för att zooma ut; eller på de gröna pilarna för angränsande kartor.


METAR-TAF: